createdAt,value
2023-04-13T00:00:47.423Z,0.00
2023-04-13T00:01:47.504Z,0.00
2023-04-13T00:02:47.521Z,0.00
2023-04-13T00:03:47.569Z,0.00
2023-04-13T00:04:47.369Z,0.00
2023-04-13T00:05:47.440Z,0.00
2023-04-13T00:06:47.348Z,0.00
2023-04-13T00:07:47.322Z,0.00
2023-04-13T00:08:47.311Z,0.00
2023-04-13T00:09:47.554Z,0.00
2023-04-13T00:10:47.283Z,0.00
2023-04-13T00:11:47.291Z,0.00
2023-04-13T00:12:47.256Z,0.00
2023-04-13T00:13:47.252Z,0.00
2023-04-13T00:14:47.232Z,0.00
2023-04-13T00:15:47.217Z,0.00
2023-04-13T00:16:47.252Z,0.00
2023-04-13T00:17:47.197Z,0.00
2023-04-13T00:18:47.178Z,0.00
2023-04-13T00:19:47.155Z,0.00
2023-04-13T00:20:47.149Z,0.00
2023-04-13T00:21:47.128Z,0.00
2023-04-13T00:22:47.118Z,0.00
2023-04-13T00:23:47.098Z,0.00
2023-04-13T00:24:47.087Z,0.00
2023-04-13T00:25:47.074Z,0.00
2023-04-13T00:26:47.062Z,0.00
2023-04-13T00:27:47.062Z,0.00
2023-04-13T00:28:47.032Z,0.00
2023-04-13T00:29:47.015Z,0.00
2023-04-13T00:30:47.016Z,0.00
2023-04-13T00:31:46.988Z,0.00
2023-04-13T00:32:47.028Z,0.00
2023-04-13T00:33:46.956Z,0.00
2023-04-13T00:34:46.951Z,0.00
2023-04-13T00:35:46.958Z,0.00
2023-04-13T00:36:46.926Z,0.00
2023-04-13T00:37:46.903Z,0.00
2023-04-13T00:38:46.894Z,0.00
2023-04-13T00:39:46.875Z,0.00
2023-04-13T00:40:46.864Z,0.00
2023-04-13T00:41:46.849Z,0.00
2023-04-13T00:42:46.834Z,0.00
2023-04-13T00:43:46.842Z,0.00
2023-04-13T00:44:46.808Z,0.00
2023-04-13T00:45:46.792Z,0.00
2023-04-13T00:46:46.857Z,0.00
2023-04-13T00:47:47.048Z,0.00
2023-04-13T00:48:46.751Z,0.00
2023-04-13T00:49:46.733Z,0.00
2023-04-13T00:50:46.723Z,0.00
2023-04-13T00:51:46.711Z,0.00
2023-04-13T00:52:46.694Z,0.00
2023-04-13T00:53:46.675Z,0.00
2023-04-13T00:54:46.666Z,0.00
2023-04-13T00:55:46.649Z,0.00
2023-04-13T00:56:46.636Z,0.00
2023-04-13T00:57:46.620Z,0.00
2023-04-13T00:58:46.627Z,0.00
2023-04-13T00:59:46.610Z,0.00
2023-04-13T01:00:46.577Z,0.00
2023-04-13T01:01:46.669Z,0.00
2023-04-13T01:02:46.597Z,0.00
2023-04-13T01:03:46.536Z,0.00
2023-04-13T01:04:46.538Z,0.00
2023-04-13T01:05:46.504Z,0.00
2023-04-13T01:06:46.492Z,0.00
2023-04-13T01:07:46.475Z,0.00
2023-04-13T01:08:46.464Z,0.00
2023-04-13T01:09:46.447Z,0.00
2023-04-13T01:10:46.439Z,0.00
2023-04-13T01:11:46.426Z,0.00
2023-04-13T01:12:46.410Z,0.00
2023-04-13T01:13:46.387Z,0.00
2023-04-13T01:14:46.382Z,0.00
2023-04-13T01:15:46.459Z,0.00
2023-04-13T01:16:46.364Z,0.00
2023-04-13T01:17:46.380Z,0.00
2023-04-13T01:18:46.336Z,0.00
2023-04-13T01:19:46.324Z,0.00
2023-04-13T01:20:46.328Z,0.00
2023-04-13T01:21:46.272Z,0.00
2023-04-13T01:22:46.260Z,0.00
2023-04-13T01:23:46.243Z,0.00
2023-04-13T01:24:46.230Z,0.00
2023-04-13T01:25:46.225Z,0.00
2023-04-13T01:26:46.210Z,0.00
2023-04-13T01:27:46.186Z,0.00
2023-04-13T01:28:46.184Z,0.00
2023-04-13T01:29:46.157Z,0.00
2023-04-13T01:30:46.148Z,0.00
2023-04-13T01:31:46.236Z,0.00
2023-04-13T01:32:46.151Z,0.00
2023-04-13T01:33:46.101Z,0.00
2023-04-13T01:34:46.135Z,0.00
2023-04-13T01:35:46.073Z,0.00
2023-04-13T01:36:46.072Z,0.00
2023-04-13T01:37:46.043Z,0.00
2023-04-13T01:38:46.030Z,0.00
2023-04-13T01:39:47.299Z,0.00
2023-04-13T01:40:46.016Z,0.00
2023-04-13T01:41:45.986Z,0.00
2023-04-13T01:42:45.967Z,0.00
2023-04-13T01:43:45.956Z,0.00
2023-04-13T01:44:45.939Z,0.00
2023-04-13T01:45:45.939Z,0.00
2023-04-13T01:46:45.913Z,0.00
2023-04-13T01:47:46.092Z,0.00
2023-04-13T01:48:45.882Z,0.00
2023-04-13T01:49:45.870Z,0.00
2023-04-13T01:50:45.863Z,0.00
2023-04-13T01:51:45.840Z,0.00
2023-04-13T01:52:45.823Z,0.00
2023-04-13T01:53:45.810Z,0.00
2023-04-13T01:54:45.794Z,0.00
2023-04-13T01:55:45.782Z,0.00
2023-04-13T01:56:45.764Z,0.00
2023-04-13T01:57:45.755Z,0.00
2023-04-13T01:58:45.740Z,0.00
2023-04-13T01:59:45.721Z,0.00
2023-04-13T02:00:45.722Z,0.00
2023-04-13T02:01:45.742Z,0.00
2023-04-13T02:02:46.129Z,0.00
2023-04-13T02:03:45.810Z,0.00
2023-04-13T02:04:45.653Z,0.00
2023-04-13T02:05:45.634Z,0.00
2023-04-13T02:06:45.618Z,0.00
2023-04-13T02:07:45.608Z,0.00
2023-04-13T02:08:45.603Z,0.00
2023-04-13T02:09:45.575Z,0.00
2023-04-13T02:10:45.565Z,0.00
2023-04-13T02:11:45.547Z,0.00
2023-04-13T02:12:45.528Z,0.00
2023-04-13T02:13:45.528Z,0.00
2023-04-13T02:14:45.498Z,0.00
2023-04-13T02:15:45.489Z,0.00
2023-04-13T02:16:45.501Z,0.00
2023-04-13T02:17:45.503Z,0.00
2023-04-13T02:18:45.438Z,0.00
2023-04-13T02:19:45.449Z,0.00
2023-04-13T02:20:45.409Z,0.00
2023-04-13T02:21:45.399Z,0.00
2023-04-13T02:22:45.380Z,0.00
2023-04-13T02:23:45.396Z,0.00
2023-04-13T02:24:45.351Z,0.00
2023-04-13T02:25:47.309Z,0.00
2023-04-13T02:26:45.357Z,0.00
2023-04-13T02:27:45.310Z,0.00
2023-04-13T02:28:45.291Z,0.00
2023-04-13T02:29:45.278Z,0.00
2023-04-13T02:30:45.278Z,0.00
2023-04-13T02:31:45.302Z,0.00
2023-04-13T02:32:45.253Z,0.00
2023-04-13T02:33:45.220Z,0.00
2023-04-13T02:34:45.208Z,0.00
2023-04-13T02:35:45.211Z,0.00
2023-04-13T02:36:45.184Z,0.00
2023-04-13T02:37:45.161Z,0.00
2023-04-13T02:38:45.140Z,0.00
2023-04-13T02:39:45.132Z,0.00
2023-04-13T02:40:45.112Z,0.00
2023-04-13T02:41:45.101Z,0.00
2023-04-13T02:42:45.082Z,0.00
2023-04-13T02:43:45.078Z,0.00
2023-04-13T02:44:45.053Z,0.00
2023-04-13T02:45:45.072Z,0.00
2023-04-13T02:46:45.027Z,0.00
2023-04-13T02:47:45.035Z,0.00
2023-04-13T02:48:44.995Z,0.00
2023-04-13T02:49:44.978Z,0.00
2023-04-13T02:50:44.966Z,0.00
2023-04-13T02:51:44.968Z,0.00
2023-04-13T02:52:44.931Z,0.00
2023-04-13T02:53:44.919Z,0.00
2023-04-13T02:54:44.900Z,0.00
2023-04-13T02:55:44.891Z,0.00
2023-04-13T02:56:44.879Z,0.00
2023-04-13T02:57:44.856Z,0.00
2023-04-13T02:58:44.864Z,0.00
2023-04-13T02:59:44.827Z,0.00
2023-04-13T03:00:44.837Z,0.00
2023-04-13T03:01:44.929Z,0.00
2023-04-13T03:02:44.956Z,0.00
2023-04-13T03:03:44.768Z,0.00
2023-04-13T03:04:44.788Z,0.00
2023-04-13T03:05:44.745Z,0.00
2023-04-13T03:06:44.725Z,0.00
2023-04-13T03:07:44.728Z,0.00
2023-04-13T03:08:44.687Z,0.00
2023-04-13T03:09:44.683Z,0.00
2023-04-13T03:10:44.665Z,0.00
2023-04-13T03:11:44.650Z,0.00
2023-04-13T03:12:44.629Z,0.00
2023-04-13T03:13:44.617Z,0.00
2023-04-13T03:14:44.607Z,0.00
2023-04-13T03:15:44.586Z,0.00
2023-04-13T03:16:44.656Z,0.00
2023-04-13T03:17:44.582Z,0.00
2023-04-13T03:18:44.540Z,0.00
2023-04-13T03:19:44.534Z,0.00
2023-04-13T03:20:44.517Z,0.00
2023-04-13T03:21:44.502Z,0.00
2023-04-13T03:22:44.483Z,0.00
2023-04-13T03:23:44.505Z,0.00
2023-04-13T03:24:44.462Z,0.00
2023-04-13T03:25:44.455Z,0.00
2023-04-13T03:27:44.406Z,0.00
2023-04-13T03:28:44.401Z,0.00
2023-04-13T03:29:44.380Z,0.00
2023-04-13T03:30:44.370Z,0.00
2023-04-13T03:31:44.473Z,0.00
2023-04-13T03:32:44.416Z,0.00
2023-04-13T03:33:44.321Z,0.00
2023-04-13T03:34:44.627Z,0.00
2023-04-13T03:35:44.304Z,0.00
2023-04-13T03:36:44.285Z,0.00
2023-04-13T03:37:44.262Z,0.00
2023-04-13T03:38:44.251Z,0.00
2023-04-13T03:39:44.254Z,0.00
2023-04-13T03:40:44.221Z,0.00
2023-04-13T03:41:44.201Z,0.00
2023-04-13T03:42:44.198Z,0.00
2023-04-13T03:43:44.175Z,0.00
2023-04-13T03:44:44.162Z,0.00
2023-04-13T03:45:44.152Z,0.00
2023-04-13T03:46:44.142Z,0.00
2023-04-13T03:47:44.157Z,0.00
2023-04-13T03:48:44.117Z,0.00
2023-04-13T03:49:44.084Z,0.00
2023-04-13T03:50:44.071Z,0.00
2023-04-13T03:51:44.055Z,0.00
2023-04-13T03:52:44.063Z,0.00
2023-04-13T03:53:44.025Z,0.00
2023-04-13T03:54:44.035Z,0.00
2023-04-13T03:55:44.016Z,0.00
2023-04-13T03:56:43.982Z,0.00
2023-04-13T03:57:43.970Z,0.00
2023-04-13T03:58:43.953Z,0.00
2023-04-13T03:59:43.938Z,0.00
2023-04-13T04:00:43.923Z,0.00
2023-04-13T04:01:43.940Z,0.00
2023-04-13T04:02:44.178Z,0.00
2023-04-13T04:03:43.973Z,0.00
2023-04-13T04:04:43.892Z,0.00
2023-04-13T04:05:43.843Z,0.00
2023-04-13T04:06:43.843Z,0.00
2023-04-13T04:07:43.815Z,0.00
2023-04-13T04:08:43.815Z,0.00
2023-04-13T04:09:43.788Z,0.00
2023-04-13T04:10:43.791Z,0.00
2023-04-13T04:11:43.775Z,0.00
2023-04-13T04:12:43.743Z,0.00
2023-04-13T04:13:43.932Z,0.00
2023-04-13T04:14:43.724Z,0.00
2023-04-13T04:15:43.696Z,0.00
2023-04-13T04:17:43.707Z,0.00
2023-04-13T04:18:43.649Z,0.00
2023-04-13T04:19:43.644Z,0.00
2023-04-13T04:20:43.625Z,0.00
2023-04-13T04:21:43.610Z,0.00
2023-04-13T04:22:43.591Z,0.00
2023-04-13T04:23:43.582Z,4.00
2023-04-13T04:24:43.561Z,4.00
2023-04-13T04:25:43.550Z,0.00
2023-04-13T04:26:43.533Z,4.00
2023-04-13T04:27:43.546Z,0.00
2023-04-13T04:28:43.502Z,4.00
2023-04-13T04:29:43.491Z,4.00
2023-04-13T04:30:43.473Z,8.00
2023-04-13T04:31:43.662Z,4.00
2023-04-13T04:32:43.458Z,4.00
2023-04-13T04:33:43.434Z,8.00
2023-04-13T04:34:43.420Z,8.00
2023-04-13T04:35:43.404Z,12.00
2023-04-13T04:36:43.390Z,12.00
2023-04-13T04:37:43.575Z,12.00
2023-04-13T04:38:43.355Z,12.00
2023-04-13T04:39:43.343Z,16.00
2023-04-13T04:40:43.326Z,16.00
2023-04-13T04:41:43.313Z,16.00
2023-04-13T04:42:43.301Z,20.00
2023-04-13T04:43:43.307Z,20.00
2023-04-13T04:44:43.267Z,20.00
2023-04-13T04:45:43.378Z,20.00
2023-04-13T04:46:43.237Z,20.00
2023-04-13T04:47:43.335Z,20.00
2023-04-13T04:48:43.204Z,24.00
2023-04-13T04:49:43.204Z,24.00
2023-04-13T04:50:43.184Z,28.00
2023-04-13T04:51:43.171Z,32.00
2023-04-13T04:52:43.185Z,28.00
2023-04-13T04:53:43.147Z,32.00
2023-04-13T04:54:43.127Z,32.00
2023-04-13T04:55:43.109Z,36.00
2023-04-13T04:56:43.091Z,40.00
2023-04-13T04:57:43.076Z,40.00
2023-04-13T04:58:43.068Z,40.00
2023-04-13T04:59:43.065Z,44.00
2023-04-13T05:00:43.029Z,52.00
2023-04-13T05:01:43.258Z,52.00
2023-04-13T05:02:43.222Z,52.00
2023-04-13T05:03:43.003Z,52.00
2023-04-13T05:04:42.972Z,60.00
2023-04-13T05:05:43.142Z,60.00
2023-04-13T05:06:42.952Z,64.00
2023-04-13T05:07:42.931Z,72.00
2023-04-13T05:08:42.912Z,72.00
2023-04-13T05:09:43.104Z,76.00
2023-04-13T05:10:42.884Z,80.00
2023-04-13T05:11:42.875Z,88.00
2023-04-13T05:12:42.855Z,96.00
2023-04-13T05:13:42.843Z,100.00
2023-04-13T05:14:42.829Z,104.00
2023-04-13T05:15:42.853Z,104.00
2023-04-13T05:16:42.803Z,108.00
2023-04-13T05:17:42.798Z,112.00
2023-04-13T05:18:42.767Z,116.00
2023-04-13T05:19:42.760Z,120.00
2023-04-13T05:20:42.737Z,136.00
2023-04-13T05:21:42.727Z,140.00
2023-04-13T05:22:42.709Z,148.00
2023-04-13T05:23:42.708Z,148.00
2023-04-13T05:24:42.684Z,152.00
2023-04-13T05:25:42.670Z,152.00
2023-04-13T05:26:42.659Z,152.00
2023-04-13T05:27:42.686Z,148.00
2023-04-13T05:28:42.634Z,156.00
2023-04-13T05:29:43.586Z,156.00
2023-04-13T05:30:42.594Z,152.00
2023-04-13T05:31:42.620Z,152.00
2023-04-13T05:32:42.587Z,148.00
2023-04-13T05:33:42.556Z,148.00
2023-04-13T05:34:42.536Z,148.00
2023-04-13T05:35:42.533Z,148.00
2023-04-13T05:36:42.510Z,156.00
2023-04-13T05:37:42.495Z,164.00
2023-04-13T05:38:42.476Z,172.00
2023-04-13T05:39:42.467Z,184.00
2023-04-13T05:40:42.453Z,184.00
2023-04-13T05:41:42.442Z,188.00
2023-04-13T05:42:42.417Z,196.00
2023-04-13T05:43:42.420Z,200.00
2023-04-13T05:44:42.386Z,220.00
2023-04-13T05:45:42.410Z,248.00
2023-04-13T05:46:42.359Z,280.00
2023-04-13T05:47:42.410Z,308.00
2023-04-13T05:48:42.331Z,348.00
2023-04-13T05:49:42.315Z,388.00
2023-04-13T05:50:42.312Z,412.00
2023-04-13T05:51:42.286Z,420.00
2023-04-13T05:52:42.274Z,392.00
2023-04-13T05:53:42.255Z,356.00
2023-04-13T05:54:42.253Z,348.00
2023-04-13T05:55:42.231Z,364.00
2023-04-13T05:56:42.215Z,392.00
2023-04-13T05:57:42.199Z,420.00
2023-04-13T05:58:42.184Z,460.00
2023-04-13T05:59:42.165Z,496.00
2023-04-13T06:00:42.153Z,536.00
2023-04-13T06:01:42.169Z,568.00
2023-04-13T06:02:42.410Z,612.00
2023-04-13T06:03:42.558Z,672.00
2023-04-13T06:04:42.270Z,720.00
2023-04-13T06:05:42.076Z,768.00
2023-04-13T06:06:42.077Z,816.00
2023-04-13T06:07:42.049Z,824.00
2023-04-13T06:08:42.037Z,812.00
2023-04-13T06:09:42.018Z,764.00
2023-04-13T06:10:42.014Z,740.00
2023-04-13T06:11:41.992Z,740.00
2023-04-13T06:12:41.977Z,752.00
2023-04-13T06:13:41.959Z,748.00
2023-04-13T06:14:41.961Z,748.00
2023-04-13T06:15:41.936Z,748.00
2023-04-13T06:16:41.975Z,732.00
2023-04-13T06:17:42.141Z,740.00
2023-04-13T06:18:41.892Z,764.00
2023-04-13T06:19:41.897Z,772.00
2023-04-13T06:20:41.861Z,788.00
2023-04-13T06:21:41.844Z,800.00
2023-04-13T06:22:41.843Z,820.00
2023-04-13T06:23:41.818Z,860.00
2023-04-13T06:24:41.809Z,880.00
2023-04-13T06:25:41.792Z,880.00
2023-04-13T06:26:41.789Z,880.00
2023-04-13T06:27:41.759Z,884.00
2023-04-13T06:28:41.747Z,872.00
2023-04-13T06:29:41.726Z,832.00
2023-04-13T06:30:41.749Z,784.00
2023-04-13T06:31:41.704Z,740.00
2023-04-13T06:32:41.736Z,708.00
2023-04-13T06:33:41.671Z,680.00
2023-04-13T06:34:41.673Z,668.00
2023-04-13T06:35:41.662Z,672.00
2023-04-13T06:36:41.651Z,692.00
2023-04-13T06:37:41.614Z,692.00
2023-04-13T06:38:41.616Z,688.00
2023-04-13T06:39:41.588Z,704.00
2023-04-13T06:40:41.575Z,724.00
2023-04-13T06:41:41.562Z,744.00
2023-04-13T06:42:41.621Z,760.00
2023-04-13T06:43:41.538Z,780.00
2023-04-13T06:44:41.520Z,800.00
2023-04-13T06:45:41.510Z,800.00
2023-04-13T06:46:41.522Z,788.00
2023-04-13T06:47:41.512Z,800.00
2023-04-13T06:48:41.460Z,796.00
2023-04-13T06:49:41.443Z,804.00
2023-04-13T06:50:41.432Z,808.00
2023-04-13T06:51:41.434Z,844.00
2023-04-13T06:52:41.404Z,880.00
2023-04-13T06:53:41.405Z,904.00
2023-04-13T06:54:41.375Z,944.00
2023-04-13T06:55:41.377Z,1016.00
2023-04-13T06:56:41.345Z,1132.00
2023-04-13T06:57:41.333Z,1224.00
2023-04-13T06:58:41.318Z,1236.00
2023-04-13T06:59:41.307Z,1212.00
2023-04-13T07:00:41.316Z,1184.00
2023-04-13T07:01:41.365Z,1164.00
2023-04-13T07:02:41.433Z,1164.00
2023-04-13T07:03:41.367Z,1172.00
2023-04-13T07:04:41.497Z,1192.00
2023-04-13T07:05:41.220Z,1296.00
2023-04-13T07:06:41.211Z,1388.00
2023-04-13T07:07:41.293Z,1460.00
2023-04-13T07:08:41.182Z,1464.00
2023-04-13T07:09:41.163Z,1488.00
2023-04-13T07:10:41.202Z,1516.00
2023-04-13T07:11:41.147Z,1540.00
2023-04-13T07:12:41.143Z,1560.00
2023-04-13T07:13:41.108Z,1576.00
2023-04-13T07:14:41.104Z,1624.00
2023-04-13T07:15:41.104Z,1748.00
2023-04-13T07:16:41.077Z,1932.00
2023-04-13T07:17:41.129Z,1976.00
2023-04-13T07:18:41.054Z,1980.00
2023-04-13T07:19:41.028Z,2012.00
2023-04-13T07:20:41.035Z,2004.00
2023-04-13T07:21:41.003Z,1956.00
2023-04-13T07:22:40.995Z,1896.00
2023-04-13T07:23:41.080Z,1784.00
2023-04-13T07:24:40.974Z,1680.00
2023-04-13T07:25:40.947Z,1632.00
2023-04-13T07:26:40.958Z,1584.00
2023-04-13T07:27:40.924Z,1548.00
2023-04-13T07:28:40.918Z,1464.00
2023-04-13T07:29:40.893Z,1480.00
2023-04-13T07:30:40.882Z,1364.00
2023-04-13T07:31:40.927Z,1328.00
2023-04-13T07:32:40.896Z,1312.00
2023-04-13T07:33:40.838Z,1300.00
2023-04-13T07:34:40.830Z,1320.00
2023-04-13T07:35:40.815Z,1360.00
2023-04-13T07:36:40.804Z,1396.00
2023-04-13T07:37:40.801Z,1448.00
2023-04-13T07:38:40.774Z,1504.00
2023-04-13T07:39:40.791Z,1512.00
2023-04-13T07:40:40.748Z,1496.00
2023-04-13T07:41:40.735Z,1460.00
2023-04-13T07:42:40.727Z,1432.00
2023-04-13T07:43:40.706Z,1440.00
2023-04-13T07:44:40.699Z,1448.00
2023-04-13T07:45:40.676Z,1476.00
2023-04-13T07:46:40.807Z,1532.00
2023-04-13T07:47:40.691Z,1524.00
2023-04-13T07:48:42.147Z,1580.00
2023-04-13T07:49:40.681Z,1604.00
2023-04-13T07:50:40.622Z,1548.00
2023-04-13T07:51:40.601Z,1488.00
2023-04-13T07:52:40.587Z,1424.00
2023-04-13T07:53:40.571Z,1408.00
2023-04-13T07:54:40.564Z,1412.00
2023-04-13T07:55:40.567Z,1436.00
2023-04-13T07:56:40.553Z,1464.00
2023-04-13T07:57:40.519Z,1420.00
2023-04-13T07:58:40.519Z,1316.00
2023-04-13T07:59:40.495Z,1224.00
2023-04-13T08:00:40.487Z,1140.00
2023-04-13T08:01:40.466Z,1128.00
2023-04-13T08:02:40.652Z,1140.00
2023-04-13T08:03:40.518Z,1148.00
2023-04-13T08:04:40.485Z,1116.00
2023-04-13T08:05:40.416Z,1048.00
2023-04-13T08:06:40.404Z,984.00
2023-04-13T08:07:40.388Z,928.00
2023-04-13T08:08:40.378Z,908.00
2023-04-13T08:09:40.361Z,920.00
2023-04-13T08:10:40.357Z,896.00
2023-04-13T08:11:40.363Z,872.00
2023-04-13T08:12:40.327Z,860.00
2023-04-13T08:13:40.319Z,872.00
2023-04-13T08:14:40.308Z,880.00
2023-04-13T08:15:40.289Z,880.00
2023-04-13T08:16:40.325Z,904.00
2023-04-13T08:17:40.313Z,920.00
2023-04-13T08:18:40.249Z,904.00
2023-04-13T08:19:40.236Z,872.00
2023-04-13T08:20:40.224Z,856.00
2023-04-13T08:21:40.208Z,848.00
2023-04-13T08:22:40.199Z,848.00
2023-04-13T08:23:40.197Z,832.00
2023-04-13T08:24:40.173Z,816.00
2023-04-13T08:25:40.158Z,812.00
2023-04-13T08:26:40.162Z,840.00
2023-04-13T08:27:40.174Z,904.00
2023-04-13T08:28:40.122Z,976.00
2023-04-13T08:29:40.104Z,1024.00
2023-04-13T08:30:40.094Z,1056.00
2023-04-13T08:31:40.113Z,1092.00
2023-04-13T08:32:40.100Z,1112.00
2023-04-13T08:33:40.087Z,1108.00
2023-04-13T08:34:40.052Z,1080.00
2023-04-13T08:35:40.032Z,1068.00
2023-04-13T08:36:40.016Z,1072.00
2023-04-13T08:37:40.029Z,1068.00
2023-04-13T08:38:39.993Z,1108.00
2023-04-13T08:39:39.982Z,1164.00
2023-04-13T08:40:39.965Z,1244.00
2023-04-13T08:41:41.659Z,1284.00
2023-04-13T08:42:39.943Z,1340.00
2023-04-13T08:43:40.012Z,1432.00
2023-04-13T08:44:40.113Z,1552.00
2023-04-13T08:45:39.907Z,1636.00
2023-04-13T08:46:39.883Z,1708.00
2023-04-13T08:47:39.915Z,1760.00
2023-04-13T08:48:52.293Z,1812.00
2023-04-13T08:49:39.840Z,1876.00
2023-04-13T08:50:39.831Z,1936.00
2023-04-13T08:51:39.814Z,2040.00
2023-04-13T08:52:39.808Z,2136.00
2023-04-13T08:53:39.787Z,2256.00
2023-04-13T08:54:39.779Z,2356.00
2023-04-13T08:55:39.760Z,2468.00
2023-04-13T08:56:46.310Z,2580.00
2023-04-13T08:57:39.734Z,2636.00
2023-04-13T08:58:39.725Z,2672.00
2023-04-13T08:59:39.739Z,2752.00
2023-04-13T09:00:39.698Z,2684.00
2023-04-13T09:01:39.783Z,2696.00
2023-04-13T09:02:49.330Z,2736.00
2023-04-13T09:03:39.860Z,2720.00
2023-04-13T09:04:39.721Z,2732.00
2023-04-13T09:05:39.639Z,2740.00
2023-04-13T09:06:39.623Z,2748.00
2023-04-13T09:07:39.818Z,2776.00
2023-04-13T09:08:39.604Z,2792.00
2023-04-13T09:09:39.585Z,2868.00
2023-04-13T09:10:39.575Z,2928.00
2023-04-13T09:11:39.558Z,2968.00
2023-04-13T09:12:39.548Z,3208.00
2023-04-13T09:13:39.536Z,3064.00
2023-04-13T09:14:39.534Z,3064.00
2023-04-13T09:15:39.532Z,3044.00
2023-04-13T09:16:39.518Z,2940.00
2023-04-13T09:18:39.473Z,3180.00
2023-04-13T09:19:39.466Z,3156.00
2023-04-13T09:20:39.657Z,3172.00
2023-04-13T09:21:39.453Z,3008.00
2023-04-13T09:22:39.426Z,3372.00
2023-04-13T09:23:39.419Z,3208.00
2023-04-13T09:24:39.417Z,3180.00
2023-04-13T09:25:39.398Z,3424.00
2023-04-13T09:26:39.388Z,3768.00
2023-04-13T09:27:39.373Z,3820.00
2023-04-13T09:28:39.356Z,3748.00
2023-04-13T09:29:39.349Z,3440.00
2023-04-13T09:30:39.375Z,3544.00
2023-04-13T09:31:39.408Z,3144.00
2023-04-13T09:32:39.364Z,3072.00
2023-04-13T09:33:39.305Z,3028.00
2023-04-13T09:34:39.289Z,3008.00
2023-04-13T09:35:39.279Z,3288.00
2023-04-13T09:36:49.697Z,2848.00
2023-04-13T09:37:39.263Z,2536.00
2023-04-13T09:38:39.242Z,2636.00
2023-04-13T09:39:39.234Z,2424.00
2023-04-13T09:40:39.220Z,2080.00
2023-04-13T09:41:39.212Z,1912.00
2023-04-13T09:42:39.202Z,1788.00
2023-04-13T09:43:39.202Z,1676.00
2023-04-13T09:44:39.184Z,1536.00
2023-04-13T09:45:39.175Z,1436.00
2023-04-13T09:46:39.169Z,1376.00
2023-04-13T09:47:39.184Z,1312.00
2023-04-13T09:48:39.131Z,1236.00
2023-04-13T09:49:39.123Z,1168.00
2023-04-13T09:50:39.114Z,1120.00
2023-04-13T09:51:39.116Z,1084.00
2023-04-13T09:52:39.084Z,1052.00
2023-04-13T09:53:39.082Z,1032.00
2023-04-13T09:54:39.058Z,1032.00
2023-04-13T09:55:39.056Z,1024.00
2023-04-13T09:56:39.034Z,996.00
2023-04-13T09:57:39.026Z,968.00
2023-04-13T09:58:39.011Z,960.00
2023-04-13T09:59:39.002Z,968.00
2023-04-13T10:00:38.988Z,988.00
2023-04-13T10:01:39.004Z,1000.00
2023-04-13T10:02:39.077Z,1012.00
2023-04-13T10:03:39.028Z,1016.00
2023-04-13T10:04:38.958Z,996.00
2023-04-13T10:05:51.162Z,968.00
2023-04-13T10:06:38.921Z,936.00
2023-04-13T10:07:38.905Z,928.00
2023-04-13T10:08:39.317Z,960.00
2023-04-13T10:09:38.880Z,1000.00
2023-04-13T10:10:38.874Z,1064.00
2023-04-13T10:11:38.860Z,1172.00
2023-04-13T10:12:38.851Z,1312.00
2023-04-13T10:13:38.836Z,1460.00
2023-04-13T10:14:38.823Z,1588.00
2023-04-13T10:15:38.819Z,1748.00
2023-04-13T10:16:38.834Z,1936.00
2023-04-13T10:17:38.876Z,2112.00
2023-04-13T10:18:38.860Z,2236.00
2023-04-13T10:19:38.780Z,2332.00
2023-04-13T10:20:38.747Z,2444.00
2023-04-13T10:21:38.731Z,2540.00
2023-04-13T10:22:38.723Z,2644.00
2023-04-13T10:23:38.707Z,2772.00
2023-04-13T10:24:38.697Z,2920.00
2023-04-13T10:26:38.673Z,3228.00
2023-04-13T10:27:38.655Z,3280.00
2023-04-13T10:28:38.648Z,3252.00
2023-04-13T10:29:38.631Z,3252.00
2023-04-13T10:30:38.622Z,3200.00
2023-04-13T10:31:38.610Z,3148.00
2023-04-13T10:32:38.622Z,3096.00
2023-04-13T10:33:38.579Z,3056.00
2023-04-13T10:34:38.576Z,3020.00
2023-04-13T10:35:41.343Z,2964.00
2023-04-13T10:36:38.557Z,2908.00
2023-04-13T10:37:38.572Z,2880.00
2023-04-13T10:38:38.568Z,2864.00
2023-04-13T10:39:38.506Z,2852.00
2023-04-13T10:40:38.505Z,2852.00
2023-04-13T10:41:38.509Z,2852.00
2023-04-13T10:42:50.804Z,2832.00
2023-04-13T10:43:38.457Z,2800.00
2023-04-13T10:44:39.033Z,2804.00
2023-04-13T10:45:38.434Z,2788.00
2023-04-13T10:46:38.461Z,2716.00
2023-04-13T10:47:38.439Z,2656.00
2023-04-13T10:48:38.400Z,2668.00
2023-04-13T10:49:38.384Z,2700.00
2023-04-13T10:50:38.376Z,2760.00
2023-04-13T10:51:38.380Z,2808.00
2023-04-13T10:52:38.350Z,2900.00
2023-04-13T10:53:38.344Z,3188.00
2023-04-13T10:54:38.328Z,3100.00
2023-04-13T10:55:38.312Z,3128.00
2023-04-13T10:56:38.303Z,3240.00
2023-04-13T10:57:38.293Z,3436.00
2023-04-13T10:58:38.282Z,3548.00
2023-04-13T10:59:49.215Z,3552.00
2023-04-13T11:00:46.154Z,3576.00
2023-04-13T11:01:38.241Z,3444.00
2023-04-13T11:02:38.380Z,3236.00
2023-04-13T11:03:40.161Z,3296.00
2023-04-13T11:04:38.274Z,3344.00
2023-04-13T11:05:38.197Z,3352.00
2023-04-13T11:06:38.337Z,3296.00
2023-04-13T11:07:38.194Z,3264.00
2023-04-13T11:08:38.172Z,3228.00
2023-04-13T11:09:38.149Z,3124.00
2023-04-13T11:10:38.151Z,3392.00
2023-04-13T11:11:38.125Z,3464.00
2023-04-13T11:12:38.118Z,3684.00
2023-04-13T11:13:38.108Z,3924.00
2023-04-13T11:14:38.100Z,3980.00
2023-04-13T11:15:38.084Z,3540.00
2023-04-13T11:16:38.104Z,3120.00
2023-04-13T11:17:38.083Z,3064.00
2023-04-13T11:18:38.061Z,2988.00
2023-04-13T11:19:38.040Z,2904.00
2023-04-13T11:20:38.070Z,2760.00
2023-04-13T11:21:38.015Z,2612.00
2023-04-13T11:22:38.012Z,2368.00
2023-04-13T11:23:38.030Z,2168.00
2023-04-13T11:24:37.989Z,2020.00
2023-04-13T11:25:37.982Z,1900.00
2023-04-13T11:26:38.646Z,1772.00
2023-04-13T11:27:38.117Z,1648.00
2023-04-13T11:28:37.943Z,1488.00
2023-04-13T11:29:37.929Z,1288.00
2023-04-13T11:30:37.929Z,1104.00
2023-04-13T11:31:37.911Z,932.00
2023-04-13T11:32:37.934Z,772.00
2023-04-13T11:33:40.081Z,648.00
2023-04-13T11:34:37.891Z,584.00
2023-04-13T11:35:37.862Z,564.00
2023-04-13T11:36:37.853Z,572.00
2023-04-13T11:37:37.888Z,608.00
2023-04-13T11:38:37.831Z,672.00
2023-04-13T11:39:37.833Z,732.00
2023-04-13T11:40:37.809Z,812.00
2023-04-13T11:41:37.787Z,908.00
2023-04-13T11:42:37.778Z,1008.00
2023-04-13T11:43:37.782Z,1060.00
2023-04-13T11:44:37.760Z,1104.00
2023-04-13T11:45:37.739Z,1160.00
2023-04-13T11:46:37.774Z,1216.00
2023-04-13T11:47:37.756Z,1264.00
2023-04-13T11:48:37.701Z,1332.00
2023-04-13T11:49:37.687Z,1432.00
2023-04-13T11:50:37.673Z,1540.00
2023-04-13T11:51:37.694Z,1652.00
2023-04-13T11:52:37.648Z,1756.00
2023-04-13T11:53:37.632Z,1892.00
2023-04-13T11:54:37.621Z,2008.00
2023-04-13T11:55:51.889Z,2164.00
2023-04-13T11:56:37.591Z,2304.00
2023-04-13T11:57:37.577Z,2536.00
2023-04-13T11:58:37.570Z,2752.00
2023-04-13T11:59:37.550Z,2988.00
2023-04-13T12:00:37.540Z,3044.00
2023-04-13T12:01:44.886Z,3056.00
2023-04-13T12:02:46.935Z,3120.00
2023-04-13T12:03:47.632Z,3172.00
2023-04-13T12:04:37.703Z,3236.00
2023-04-13T12:05:37.664Z,3300.00
2023-04-13T12:06:37.910Z,3392.00
2023-04-13T12:07:37.941Z,3580.00
2023-04-13T12:08:37.904Z,3684.00
2023-04-13T12:09:55.153Z,3516.00
2023-04-13T12:10:42.910Z,3672.00
2023-04-13T12:11:42.295Z,3600.00
2023-04-13T12:13:38.062Z,3484.00
2023-04-13T12:15:45.710Z,3172.00
2023-04-13T12:17:03.120Z,3168.00
2023-04-13T12:17:41.343Z,3200.00
2023-04-13T12:18:38.110Z,3296.00
2023-04-13T12:19:38.233Z,3104.00
2023-04-13T12:20:37.325Z,3276.00
2023-04-13T12:21:37.320Z,3468.00
2023-04-13T12:22:50.902Z,3412.00
2023-04-13T12:23:37.268Z,3444.00
2023-04-13T12:24:38.333Z,3592.00
2023-04-13T12:25:38.574Z,3680.00
2023-04-13T12:27:37.217Z,3600.00
2023-04-13T12:28:37.190Z,3484.00
2023-04-13T12:29:37.177Z,3508.00
2023-04-13T12:30:37.168Z,3508.00
2023-04-13T12:31:37.219Z,3536.00
2023-04-13T12:32:37.327Z,3504.00
2023-04-13T12:33:37.138Z,3516.00
2023-04-13T12:34:37.121Z,3456.00
2023-04-13T12:35:37.108Z,3524.00
2023-04-13T12:36:37.167Z,3576.00
2023-04-13T12:37:37.083Z,3440.00
2023-04-13T12:38:37.077Z,3536.00
2023-04-13T12:39:37.073Z,3292.00
2023-04-13T12:40:37.053Z,3200.00
2023-04-13T12:41:37.147Z,3380.00
2023-04-13T12:42:37.033Z,3308.00
2023-04-13T12:43:37.065Z,3544.00
2023-04-13T12:44:37.008Z,3352.00